sensor_id;sensor_type;location;lat;lon;timestamp;P1;durP1;ratioP1;P2;durP2;ratioP2
53977;SDS011;39886;47.984;-1.586;2024-01-10T00:01:33;3.15;;;2.63;;
53977;SDS011;39886;47.984;-1.586;2024-01-10T00:03:59;2.97;;;2.70;;
53977;SDS011;39886;47.984;-1.586;2024-01-10T00:06:24;3.58;;;3.00;;
53977;SDS011;39886;47.984;-1.586;2024-01-10T00:08:50;3.70;;;2.92;;
53977;SDS011;39886;47.984;-1.586;2024-01-10T00:11:16;3.50;;;2.63;;
53977;SDS011;39886;47.984;-1.586;2024-01-10T00:13:42;3.42;;;3.05;;
53977;SDS011;39886;47.984;-1.586;2024-01-10T00:16:08;3.65;;;2.95;;
53977;SDS011;39886;47.984;-1.586;2024-01-10T00:18:34;3.28;;;2.97;;
53977;SDS011;39886;47.984;-1.586;2024-01-10T00:20:59;3.22;;;2.90;;
53977;SDS011;39886;47.984;-1.586;2024-01-10T00:23:25;3.05;;;2.75;;
53977;SDS011;39886;47.984;-1.586;2024-01-10T00:25:51;3.63;;;3.03;;
53977;SDS011;39886;47.984;-1.586;2024-01-10T00:28:17;3.25;;;2.67;;
53977;SDS011;39886;47.984;-1.586;2024-01-10T00:30:43;3.33;;;3.03;;
53977;SDS011;39886;47.984;-1.586;2024-01-10T00:33:09;3.35;;;2.85;;
53977;SDS011;39886;47.984;-1.586;2024-01-10T00:35:36;4.10;;;3.05;;
53977;SDS011;39886;47.984;-1.586;2024-01-10T00:38:02;3.45;;;2.97;;
53977;SDS011;39886;47.984;-1.586;2024-01-10T00:40:28;3.88;;;3.20;;
53977;SDS011;39886;47.984;-1.586;2024-01-10T00:42:54;3.70;;;3.03;;
53977;SDS011;39886;47.984;-1.586;2024-01-10T00:45:20;3.78;;;3.00;;
53977;SDS011;39886;47.984;-1.586;2024-01-10T00:47:47;4.38;;;3.30;;
53977;SDS011;39886;47.984;-1.586;2024-01-10T00:50:14;3.35;;;3.05;;
53977;SDS011;39886;47.984;-1.586;2024-01-10T00:52:41;3.67;;;3.10;;
53977;SDS011;39886;47.984;-1.586;2024-01-10T00:55:07;3.60;;;2.90;;
53977;SDS011;39886;47.984;-1.586;2024-01-10T00:57:33;3.70;;;3.20;;
53977;SDS011;39886;47.984;-1.586;2024-01-10T00:59:59;4.45;;;3.30;;
53977;SDS011;39886;47.984;-1.586;2024-01-10T01:02:24;3.20;;;2.90;;
53977;SDS011;39886;47.984;-1.586;2024-01-10T01:04:51;3.88;;;2.85;;
53977;SDS011;39886;47.984;-1.586;2024-01-10T01:07:16;3.50;;;3.15;;
53977;SDS011;39886;47.984;-1.586;2024-01-10T01:09:42;4.88;;;3.30;;
53977;SDS011;39886;47.984;-1.586;2024-01-10T01:12:08;4.15;;;3.08;;
53977;SDS011;39886;47.984;-1.586;2024-01-10T01:14:34;3.83;;;3.20;;
53977;SDS011;39886;47.984;-1.586;2024-01-10T01:17:00;3.75;;;3.08;;
53977;SDS011;39886;47.984;-1.586;2024-01-10T01:19:25;3.38;;;3.08;;
53977;SDS011;39886;47.984;-1.586;2024-01-10T01:21:51;3.80;;;3.05;;
53977;SDS011;39886;47.984;-1.586;2024-01-10T01:24:17;3.85;;;2.80;;
53977;SDS011;39886;47.984;-1.586;2024-01-10T01:26:42;3.90;;;3.00;;
53977;SDS011;39886;47.984;-1.586;2024-01-10T01:29:08;4.28;;;3.13;;
53977;SDS011;39886;47.984;-1.586;2024-01-10T01:31:34;3.33;;;3.00;;
53977;SDS011;39886;47.984;-1.586;2024-01-10T01:34:00;3.42;;;3.10;;
53977;SDS011;39886;47.984;-1.586;2024-01-10T01:36:26;4.57;;;3.20;;
53977;SDS011;39886;47.984;-1.586;2024-01-10T01:38:52;4.63;;;3.38;;
53977;SDS011;39886;47.984;-1.586;2024-01-10T01:41:18;4.10;;;3.28;;
53977;SDS011;39886;47.984;-1.586;2024-01-10T01:43:44;4.88;;;3.40;;
53977;SDS011;39886;47.984;-1.586;2024-01-10T01:46:11;5.30;;;3.20;;
53977;SDS011;39886;47.984;-1.586;2024-01-10T01:48:37;4.28;;;3.20;;
53977;SDS011;39886;47.984;-1.586;2024-01-10T01:51:04;4.45;;;3.40;;
53977;SDS011;39886;47.984;-1.586;2024-01-10T01:53:32;3.80;;;3.15;;
53977;SDS011;39886;47.984;-1.586;2024-01-10T01:56:00;3.90;;;3.13;;
53977;SDS011;39886;47.984;-1.586;2024-01-10T01:58:30;3.85;;;3.35;;
53977;SDS011;39886;47.984;-1.586;2024-01-10T02:00:56;5.15;;;3.50;;
53977;SDS011;39886;47.984;-1.586;2024-01-10T02:03:23;3.97;;;3.40;;
53977;SDS011;39886;47.984;-1.586;2024-01-10T02:05:49;3.67;;;3.30;;
53977;SDS011;39886;47.984;-1.586;2024-01-10T02:08:14;4.15;;;3.20;;
53977;SDS011;39886;47.984;-1.586;2024-01-10T02:10:40;4.10;;;3.40;;
53977;SDS011;39886;47.984;-1.586;2024-01-10T02:13:06;3.72;;;3.10;;
53977;SDS011;39886;47.984;-1.586;2024-01-10T02:15:34;4.03;;;3.45;;
53977;SDS011;39886;47.984;-1.586;2024-01-10T02:18:00;3.55;;;3.20;;
53977;SDS011;39886;47.984;-1.586;2024-01-10T02:20:26;4.55;;;3.55;;
53977;SDS011;39886;47.984;-1.586;2024-01-10T02:22:52;3.80;;;3.40;;
53977;SDS011;39886;47.984;-1.586;2024-01-10T02:25:18;3.85;;;3.30;;
53977;SDS011;39886;47.984;-1.586;2024-01-10T02:27:43;4.40;;;3.53;;
53977;SDS011;39886;47.984;-1.586;2024-01-10T02:30:09;4.47;;;3.55;;
53977;SDS011;39886;47.984;-1.586;2024-01-10T02:32:36;5.38;;;3.67;;
53977;SDS011;39886;47.984;-1.586;2024-01-10T02:35:02;3.92;;;3.30;;
53977;SDS011;39886;47.984;-1.586;2024-01-10T02:37:28;3.38;;;3.00;;
53977;SDS011;39886;47.984;-1.586;2024-01-10T02:39:54;3.75;;;3.25;;
53977;SDS011;39886;47.984;-1.586;2024-01-10T02:42:20;4.68;;;3.17;;
53977;SDS011;39886;47.984;-1.586;2024-01-10T02:44:46;4.50;;;3.60;;
53977;SDS011;39886;47.984;-1.586;2024-01-10T02:47:11;4.00;;;3.40;;
53977;SDS011;39886;47.984;-1.586;2024-01-10T02:49:37;4.38;;;3.45;;
53977;SDS011;39886;47.984;-1.586;2024-01-10T02:52:04;4.95;;;3.40;;
53977;SDS011;39886;47.984;-1.586;2024-01-10T02:54:30;4.50;;;3.63;;
53977;SDS011;39886;47.984;-1.586;2024-01-10T02:56:56;4.97;;;3.90;;
53977;SDS011;39886;47.984;-1.586;2024-01-10T02:59:21;3.85;;;3.28;;
53977;SDS011;39886;47.984;-1.586;2024-01-10T03:01:47;4.40;;;3.25;;
53977;SDS011;39886;47.984;-1.586;2024-01-10T03:04:13;4.15;;;3.45;;
53977;SDS011;39886;47.984;-1.586;2024-01-10T03:06:39;4.50;;;3.60;;
53977;SDS011;39886;47.984;-1.586;2024-01-10T03:09:05;4.53;;;3.40;;
53977;SDS011;39886;47.984;-1.586;2024-01-10T03:11:30;4.55;;;3.65;;
53977;SDS011;39886;47.984;-1.586;2024-01-10T03:14:04;3.92;;;3.50;;
53977;SDS011;39886;47.984;-1.586;2024-01-10T03:16:34;4.55;;;3.83;;
53977;SDS011;39886;47.984;-1.586;2024-01-10T03:19:00;4.22;;;3.50;;
53977;SDS011;39886;47.984;-1.586;2024-01-10T03:21:25;3.97;;;3.13;;
53977;SDS011;39886;47.984;-1.586;2024-01-10T03:23:58;4.53;;;3.95;;
53977;SDS011;39886;47.984;-1.586;2024-01-10T03:28:50;4.40;;;3.17;;
53977;SDS011;39886;47.984;-1.586;2024-01-10T03:31:16;4.70;;;3.55;;
53977;SDS011;39886;47.984;-1.586;2024-01-10T03:33:42;4.40;;;3.53;;
53977;SDS011;39886;47.984;-1.586;2024-01-10T03:36:10;4.70;;;3.53;;
53977;SDS011;39886;47.984;-1.586;2024-01-10T03:38:38;5.00;;;3.42;;
53977;SDS011;39886;47.984;-1.586;2024-01-10T03:41:04;4.80;;;3.50;;
53977;SDS011;39886;47.984;-1.586;2024-01-10T03:43:29;4.35;;;3.30;;
53977;SDS011;39886;47.984;-1.586;2024-01-10T03:45:56;4.65;;;3.50;;
53977;SDS011;39886;47.984;-1.586;2024-01-10T03:48:22;4.15;;;3.47;;
53977;SDS011;39886;47.984;-1.586;2024-01-10T03:50:48;4.07;;;3.35;;
53977;SDS011;39886;47.984;-1.586;2024-01-10T03:53:13;4.90;;;3.65;;
53977;SDS011;39886;47.984;-1.586;2024-01-10T03:55:39;4.03;;;3.20;;
53977;SDS011;39886;47.984;-1.586;2024-01-10T03:58:05;5.05;;;3.55;;
53977;SDS011;39886;47.984;-1.586;2024-01-10T04:00:31;5.10;;;3.70;;
53977;SDS011;39886;47.984;-1.586;2024-01-10T04:02:57;3.97;;;3.50;;
53977;SDS011;39886;47.984;-1.586;2024-01-10T04:05:23;4.45;;;3.50;;
53977;SDS011;39886;47.984;-1.586;2024-01-10T04:07:50;4.00;;;3.60;;
53977;SDS011;39886;47.984;-1.586;2024-01-10T04:10:16;4.60;;;3.60;;
53977;SDS011;39886;47.984;-1.586;2024-01-10T04:12:43;4.25;;;3.25;;
53977;SDS011;39886;47.984;-1.586;2024-01-10T04:15:09;3.85;;;3.45;;
53977;SDS011;39886;47.984;-1.586;2024-01-10T04:17:35;3.85;;;3.45;;
53977;SDS011;39886;47.984;-1.586;2024-01-10T04:20:01;4.00;;;3.35;;
53977;SDS011;39886;47.984;-1.586;2024-01-10T04:22:28;4.50;;;3.58;;
53977;SDS011;39886;47.984;-1.586;2024-01-10T04:24:55;3.85;;;3.17;;
53977;SDS011;39886;47.984;-1.586;2024-01-10T04:27:25;4.57;;;3.80;;
53977;SDS011;39886;47.984;-1.586;2024-01-10T04:29:52;3.90;;;3.33;;
53977;SDS011;39886;47.984;-1.586;2024-01-10T04:32:18;4.50;;;3.75;;
53977;SDS011;39886;47.984;-1.586;2024-01-10T04:34:44;4.57;;;3.65;;
53977;SDS011;39886;47.984;-1.586;2024-01-10T04:37:09;4.45;;;3.60;;
53977;SDS011;39886;47.984;-1.586;2024-01-10T04:39:35;4.70;;;3.63;;
53977;SDS011;39886;47.984;-1.586;2024-01-10T04:42:03;4.15;;;3.38;;
53977;SDS011;39886;47.984;-1.586;2024-01-10T04:44:29;5.10;;;3.85;;
53977;SDS011;39886;47.984;-1.586;2024-01-10T04:46:55;4.85;;;3.72;;
53977;SDS011;39886;47.984;-1.586;2024-01-10T04:49:20;4.55;;;3.38;;
53977;SDS011;39886;47.984;-1.586;2024-01-10T04:51:46;4.22;;;3.40;;
53977;SDS011;39886;47.984;-1.586;2024-01-10T04:54:12;4.38;;;3.60;;
53977;SDS011;39886;47.984;-1.586;2024-01-10T04:56:38;4.32;;;3.55;;
53977;SDS011;39886;47.984;-1.586;2024-01-10T04:59:04;4.55;;;3.70;;
53977;SDS011;39886;47.984;-1.586;2024-01-10T05:01:30;4.03;;;3.25;;
53977;SDS011;39886;47.984;-1.586;2024-01-10T05:03:57;3.90;;;3.40;;
53977;SDS011;39886;47.984;-1.586;2024-01-10T05:06:22;4.03;;;3.33;;
53977;SDS011;39886;47.984;-1.586;2024-01-10T05:08:48;4.40;;;3.63;;
53977;SDS011;39886;47.984;-1.586;2024-01-10T05:11:14;3.72;;;3.10;;
53977;SDS011;39886;47.984;-1.586;2024-01-10T05:13:41;4.15;;;3.53;;
53977;SDS011;39886;47.984;-1.586;2024-01-10T05:16:09;4.32;;;3.58;;
53977;SDS011;39886;47.984;-1.586;2024-01-10T05:18:35;3.80;;;3.40;;
53977;SDS011;39886;47.984;-1.586;2024-01-10T05:21:01;4.10;;;3.20;;
53977;SDS011;39886;47.984;-1.586;2024-01-10T05:23:29;4.65;;;3.70;;
53977;SDS011;39886;47.984;-1.586;2024-01-10T05:25:55;4.22;;;3.50;;
53977;SDS011;39886;47.984;-1.586;2024-01-10T05:28:20;4.00;;;3.40;;
53977;SDS011;39886;47.984;-1.586;2024-01-10T05:30:46;4.50;;;3.47;;
53977;SDS011;39886;47.984;-1.586;2024-01-10T05:33:12;5.13;;;3.60;;
53977;SDS011;39886;47.984;-1.586;2024-01-10T05:35:38;3.97;;;3.50;;
53977;SDS011;39886;47.984;-1.586;2024-01-10T05:38:04;4.38;;;3.53;;
53977;SDS011;39886;47.984;-1.586;2024-01-10T05:40:29;3.92;;;3.47;;
53977;SDS011;39886;47.984;-1.586;2024-01-10T05:42:56;3.75;;;3.33;;
53977;SDS011;39886;47.984;-1.586;2024-01-10T05:45:22;4.63;;;3.90;;
53977;SDS011;39886;47.984;-1.586;2024-01-10T05:47:48;4.05;;;3.65;;
53977;SDS011;39886;47.984;-1.586;2024-01-10T05:50:14;4.65;;;3.50;;
53977;SDS011;39886;47.984;-1.586;2024-01-10T05:52:39;4.57;;;3.58;;
53977;SDS011;39886;47.984;-1.586;2024-01-10T05:55:05;5.28;;;3.80;;
53977;SDS011;39886;47.984;-1.586;2024-01-10T05:57:34;4.28;;;3.80;;
53977;SDS011;39886;47.984;-1.586;2024-01-10T06:00:00;4.82;;;3.70;;
53977;SDS011;39886;47.984;-1.586;2024-01-10T06:02:26;3.90;;;3.20;;
53977;SDS011;39886;47.984;-1.586;2024-01-10T06:04:52;4.25;;;3.63;;
53977;SDS011;39886;47.984;-1.586;2024-01-10T06:07:18;4.07;;;3.63;;
53977;SDS011;39886;47.984;-1.586;2024-01-10T06:09:47;3.42;;;3.13;;
53977;SDS011;39886;47.984;-1.586;2024-01-10T06:12:13;3.83;;;3.35;;
53977;SDS011;39886;47.984;-1.586;2024-01-10T06:14:39;3.90;;;3.20;;
53977;SDS011;39886;47.984;-1.586;2024-01-10T06:17:06;4.38;;;3.72;;
53977;SDS011;39886;47.984;-1.586;2024-01-10T06:19:32;5.07;;;3.95;;
53977;SDS011;39886;47.984;-1.586;2024-01-10T06:21:58;3.90;;;3.47;;
53977;SDS011;39886;47.984;-1.586;2024-01-10T06:24:24;4.13;;;3.55;;
53977;SDS011;39886;47.984;-1.586;2024-01-10T06:26:51;4.75;;;3.80;;
53977;SDS011;39886;47.984;-1.586;2024-01-10T06:29:16;4.35;;;3.55;;
53977;SDS011;39886;47.984;-1.586;2024-01-10T06:31:43;3.75;;;3.20;;
53977;SDS011;39886;47.984;-1.586;2024-01-10T06:34:08;5.28;;;3.63;;
53977;SDS011;39886;47.984;-1.586;2024-01-10T06:36:34;4.18;;;3.50;;
53977;SDS011;39886;47.984;-1.586;2024-01-10T06:39:00;4.35;;;3.70;;
53977;SDS011;39886;47.984;-1.586;2024-01-10T06:41:26;4.80;;;3.80;;
53977;SDS011;39886;47.984;-1.586;2024-01-10T06:43:52;4.20;;;3.38;;
53977;SDS011;39886;47.984;-1.586;2024-01-10T06:46:18;3.97;;;3.58;;
53977;SDS011;39886;47.984;-1.586;2024-01-10T06:48:45;3.90;;;3.33;;
53977;SDS011;39886;47.984;-1.586;2024-01-10T06:51:14;4.45;;;3.90;;
53977;SDS011;39886;47.984;-1.586;2024-01-10T06:53:40;4.18;;;3.60;;
53977;SDS011;39886;47.984;-1.586;2024-01-10T06:56:06;4.47;;;3.67;;
53977;SDS011;39886;47.984;-1.586;2024-01-10T06:58:34;4.55;;;3.88;;
53977;SDS011;39886;47.984;-1.586;2024-01-10T07:01:00;4.80;;;3.80;;
53977;SDS011;39886;47.984;-1.586;2024-01-10T07:03:26;4.03;;;3.40;;
53977;SDS011;39886;47.984;-1.586;2024-01-10T07:05:52;4.55;;;3.63;;
53977;SDS011;39886;47.984;-1.586;2024-01-10T07:08:18;4.38;;;3.70;;
53977;SDS011;39886;47.984;-1.586;2024-01-10T07:10:43;4.55;;;4.05;;
53977;SDS011;39886;47.984;-1.586;2024-01-10T07:13:09;4.15;;;3.40;;
53977;SDS011;39886;47.984;-1.586;2024-01-10T07:15:36;4.55;;;3.58;;
53977;SDS011;39886;47.984;-1.586;2024-01-10T07:18:03;4.47;;;3.65;;
53977;SDS011;39886;47.984;-1.586;2024-01-10T07:20:29;3.85;;;3.45;;
53977;SDS011;39886;47.984;-1.586;2024-01-10T07:22:55;4.40;;;3.85;;
53977;SDS011;39886;47.984;-1.586;2024-01-10T07:25:21;4.13;;;3.60;;
53977;SDS011;39886;47.984;-1.586;2024-01-10T07:27:50;4.57;;;3.42;;
53977;SDS011;39886;47.984;-1.586;2024-01-10T07:30:16;4.32;;;3.67;;
53977;SDS011;39886;47.984;-1.586;2024-01-10T07:32:42;4.32;;;3.30;;
53977;SDS011;39886;47.984;-1.586;2024-01-10T07:35:09;4.00;;;3.60;;
53977;SDS011;39886;47.984;-1.586;2024-01-10T07:37:39;4.82;;;3.88;;
53977;SDS011;39886;47.984;-1.586;2024-01-10T07:40:06;4.95;;;3.83;;
53977;SDS011;39886;47.984;-1.586;2024-01-10T07:42:33;5.03;;;3.67;;
53977;SDS011;39886;47.984;-1.586;2024-01-10T07:45:00;5.38;;;3.70;;
53977;SDS011;39886;47.984;-1.586;2024-01-10T07:47:32;4.68;;;3.75;;
53977;SDS011;39886;47.984;-1.586;2024-01-10T07:52:31;4.13;;;3.55;;
53977;SDS011;39886;47.984;-1.586;2024-01-10T07:54:57;4.82;;;3.85;;
53977;SDS011;39886;47.984;-1.586;2024-01-10T07:57:23;4.47;;;3.67;;
53977;SDS011;39886;47.984;-1.586;2024-01-10T07:59:48;4.82;;;3.80;;
53977;SDS011;39886;47.984;-1.586;2024-01-10T08:02:14;5.32;;;3.97;;
53977;SDS011;39886;47.984;-1.586;2024-01-10T08:04:40;4.65;;;3.42;;
53977;SDS011;39886;47.984;-1.586;2024-01-10T08:07:06;6.03;;;3.95;;
53977;SDS011;39886;47.984;-1.586;2024-01-10T08:09:32;4.70;;;3.65;;
53977;SDS011;39886;47.984;-1.586;2024-01-10T08:11:57;5.38;;;3.80;;
53977;SDS011;39886;47.984;-1.586;2024-01-10T08:14:23;3.92;;;3.47;;
53977;SDS011;39886;47.984;-1.586;2024-01-10T08:16:49;4.97;;;3.72;;
53977;SDS011;39886;47.984;-1.586;2024-01-10T08:19:18;4.88;;;3.75;;
53977;SDS011;39886;47.984;-1.586;2024-01-10T08:21:43;6.55;;;3.78;;
53977;SDS011;39886;47.984;-1.586;2024-01-10T08:24:09;6.07;;;3.90;;
53977;SDS011;39886;47.984;-1.586;2024-01-10T08:26:35;6.28;;;3.80;;
53977;SDS011;39886;47.984;-1.586;2024-01-10T08:29:02;7.10;;;4.43;;
53977;SDS011;39886;47.984;-1.586;2024-01-10T08:31:28;6.35;;;3.70;;
53977;SDS011;39886;47.984;-1.586;2024-01-10T08:33:54;4.95;;;3.72;;
53977;SDS011;39886;47.984;-1.586;2024-01-10T08:36:22;5.13;;;4.20;;
53977;SDS011;39886;47.984;-1.586;2024-01-10T08:38:49;5.47;;;4.18;;
53977;SDS011;39886;47.984;-1.586;2024-01-10T08:41:15;4.68;;;3.95;;
53977;SDS011;39886;47.984;-1.586;2024-01-10T08:43:41;6.85;;;3.80;;
53977;SDS011;39886;47.984;-1.586;2024-01-10T08:46:10;5.47;;;4.00;;
53977;SDS011;39886;47.984;-1.586;2024-01-10T08:48:36;5.18;;;3.95;;
53977;SDS011;39886;47.984;-1.586;2024-01-10T08:51:02;4.57;;;3.50;;
53977;SDS011;39886;47.984;-1.586;2024-01-10T08:53:28;8.43;;;3.90;;
53977;SDS011;39886;47.984;-1.586;2024-01-10T08:55:54;5.20;;;3.80;;
53977;SDS011;39886;47.984;-1.586;2024-01-10T08:58:20;5.38;;;3.85;;
53977;SDS011;39886;47.984;-1.586;2024-01-10T09:00:45;5.32;;;4.07;;
53977;SDS011;39886;47.984;-1.586;2024-01-10T09:03:11;6.03;;;4.22;;
53977;SDS011;39886;47.984;-1.586;2024-01-10T09:05:37;5.90;;;3.80;;
53977;SDS011;39886;47.984;-1.586;2024-01-10T09:08:03;5.82;;;3.63;;
53977;SDS011;39886;47.984;-1.586;2024-01-10T09:10:29;4.85;;;3.80;;
53977;SDS011;39886;47.984;-1.586;2024-01-10T09:12:54;4.97;;;3.80;;
53977;SDS011;39886;47.984;-1.586;2024-01-10T09:15:20;4.35;;;3.63;;
53977;SDS011;39886;47.984;-1.586;2024-01-10T09:17:46;8.32;;;6.72;;
53977;SDS011;39886;47.984;-1.586;2024-01-10T09:20:12;8.20;;;5.07;;
53977;SDS011;39886;47.984;-1.586;2024-01-10T09:22:40;8.07;;;6.00;;
53977;SDS011;39886;47.984;-1.586;2024-01-10T09:25:05;7.50;;;5.30;;
53977;SDS011;39886;47.984;-1.586;2024-01-10T09:27:32;7.53;;;4.93;;
53977;SDS011;39886;47.984;-1.586;2024-01-10T09:30:01;5.35;;;4.50;;
53977;SDS011;39886;47.984;-1.586;2024-01-10T09:32:28;9.68;;;4.38;;
53977;SDS011;39886;47.984;-1.586;2024-01-10T09:34:56;6.45;;;4.95;;
53977;SDS011;39886;47.984;-1.586;2024-01-10T09:37:23;5.70;;;4.75;;
53977;SDS011;39886;47.984;-1.586;2024-01-10T09:39:49;7.70;;;5.15;;
53977;SDS011;39886;47.984;-1.586;2024-01-10T09:42:14;6.18;;;5.00;;
53977;SDS011;39886;47.984;-1.586;2024-01-10T09:44:40;7.63;;;5.05;;
53977;SDS011;39886;47.984;-1.586;2024-01-10T09:47:07;5.50;;;4.65;;
53977;SDS011;39886;47.984;-1.586;2024-01-10T09:49:34;5.82;;;4.63;;
53977;SDS011;39886;47.984;-1.586;2024-01-10T09:52:01;8.85;;;5.20;;
53977;SDS011;39886;47.984;-1.586;2024-01-10T09:54:30;6.60;;;4.80;;
53977;SDS011;39886;47.984;-1.586;2024-01-10T09:56:57;8.20;;;4.97;;
53977;SDS011;39886;47.984;-1.586;2024-01-10T09:59:23;8.27;;;4.80;;
53977;SDS011;39886;47.984;-1.586;2024-01-10T10:01:49;7.32;;;4.70;;
53977;SDS011;39886;47.984;-1.586;2024-01-10T10:04:16;8.65;;;4.57;;
53977;SDS011;39886;47.984;-1.586;2024-01-10T10:06:43;7.90;;;4.28;;
53977;SDS011;39886;47.984;-1.586;2024-01-10T10:09:10;5.63;;;4.10;;
53977;SDS011;39886;47.984;-1.586;2024-01-10T10:11:37;7.28;;;4.30;;
53977;SDS011;39886;47.984;-1.586;2024-01-10T10:14:15;5.97;;;4.40;;
53977;SDS011;39886;47.984;-1.586;2024-01-10T10:16:41;5.47;;;4.43;;
53977;SDS011;39886;47.984;-1.586;2024-01-10T10:19:07;7.97;;;4.72;;
53977;SDS011;39886;47.984;-1.586;2024-01-10T10:21:34;5.65;;;4.22;;
53977;SDS011;39886;47.984;-1.586;2024-01-10T10:24:00;7.43;;;5.15;;
53977;SDS011;39886;47.984;-1.586;2024-01-10T10:26:33;6.82;;;5.28;;
53977;SDS011;39886;47.984;-1.586;2024-01-10T10:29:00;7.88;;;5.00;;
53977;SDS011;39886;47.984;-1.586;2024-01-10T10:31:27;11.20;;;5.35;;
53977;SDS011;39886;47.984;-1.586;2024-01-10T10:33:54;6.32;;;4.88;;
53977;SDS011;39886;47.984;-1.586;2024-01-10T10:36:20;6.32;;;4.70;;
53977;SDS011;39886;47.984;-1.586;2024-01-10T10:38:47;7.53;;;5.00;;
53977;SDS011;39886;47.984;-1.586;2024-01-10T10:41:13;8.50;;;5.03;;
53977;SDS011;39886;47.984;-1.586;2024-01-10T10:43:40;7.15;;;5.47;;
53977;SDS011;39886;47.984;-1.586;2024-01-10T10:46:09;6.65;;;4.60;;
53977;SDS011;39886;47.984;-1.586;2024-01-10T10:48:39;7.88;;;4.80;;
53977;SDS011;39886;47.984;-1.586;2024-01-10T10:51:24;12.85;;;5.63;;
53977;SDS011;39886;47.984;-1.586;2024-01-10T10:53:53;9.27;;;5.60;;
53977;SDS011;39886;47.984;-1.586;2024-01-10T10:56:20;6.93;;;4.93;;
53977;SDS011;39886;47.984;-1.586;2024-01-10T10:58:48;6.93;;;5.07;;
53977;SDS011;39886;47.984;-1.586;2024-01-10T11:01:15;12.15;;;6.65;;
53977;SDS011;39886;47.984;-1.586;2024-01-10T11:03:42;9.30;;;4.78;;
53977;SDS011;39886;47.984;-1.586;2024-01-10T11:06:09;7.53;;;5.30;;
53977;SDS011;39886;47.984;-1.586;2024-01-10T11:08:36;9.20;;;5.28;;
53977;SDS011;39886;47.984;-1.586;2024-01-10T11:11:07;7.53;;;4.55;;
53977;SDS011;39886;47.984;-1.586;2024-01-10T11:13:47;7.38;;;5.28;;
53977;SDS011;39886;47.984;-1.586;2024-01-10T11:16:28;9.98;;;5.15;;
53977;SDS011;39886;47.984;-1.586;2024-01-10T11:19:03;7.68;;;4.57;;
53977;SDS011;39886;47.984;-1.586;2024-01-10T11:24:05;11.05;;;5.07;;
53977;SDS011;39886;47.984;-1.586;2024-01-10T11:26:34;6.90;;;4.90;;
53977;SDS011;39886;47.984;-1.586;2024-01-10T11:29:02;7.30;;;4.82;;
53977;SDS011;39886;47.984;-1.586;2024-01-10T11:31:30;7.57;;;4.72;;
53977;SDS011;39886;47.984;-1.586;2024-01-10T11:33:57;5.68;;;4.53;;
53977;SDS011;39886;47.984;-1.586;2024-01-10T11:36:25;6.28;;;4.70;;
53977;SDS011;39886;47.984;-1.586;2024-01-10T11:46:41;7.50;;;5.18;;
53977;SDS011;39886;47.984;-1.586;2024-01-10T11:49:08;6.78;;;4.45;;
53977;SDS011;39886;47.984;-1.586;2024-01-10T11:51:44;9.38;;;5.13;;
53977;SDS011;39886;47.984;-1.586;2024-01-10T11:54:10;7.38;;;5.07;;
53977;SDS011;39886;47.984;-1.586;2024-01-10T11:56:39;6.88;;;4.82;;
53977;SDS011;39886;47.984;-1.586;2024-01-10T11:59:09;6.15;;;4.75;;
53977;SDS011;39886;47.984;-1.586;2024-01-10T12:01:41;6.30;;;4.80;;
53977;SDS011;39886;47.984;-1.586;2024-01-10T12:04:07;8.40;;;4.53;;
53977;SDS011;39886;47.984;-1.586;2024-01-10T12:06:35;8.50;;;4.70;;
53977;SDS011;39886;47.984;-1.586;2024-01-10T12:09:02;5.85;;;4.47;;
53977;SDS011;39886;47.984;-1.586;2024-01-10T12:11:34;7.28;;;5.15;;
53977;SDS011;39886;47.984;-1.586;2024-01-10T12:14:01;5.65;;;4.22;;
53977;SDS011;39886;47.984;-1.586;2024-01-10T12:16:27;6.28;;;4.53;;
53977;SDS011;39886;47.984;-1.586;2024-01-10T12:18:54;6.53;;;4.53;;
53977;SDS011;39886;47.984;-1.586;2024-01-10T12:21:20;6.20;;;4.53;;
53977;SDS011;39886;47.984;-1.586;2024-01-10T12:23:46;6.32;;;4.70;;
53977;SDS011;39886;47.984;-1.586;2024-01-10T12:26:13;6.68;;;4.65;;
53977;SDS011;39886;47.984;-1.586;2024-01-10T12:28:40;7.47;;;4.60;;
53977;SDS011;39886;47.984;-1.586;2024-01-10T12:31:07;6.90;;;4.80;;
53977;SDS011;39886;47.984;-1.586;2024-01-10T12:33:34;7.55;;;4.95;;
53977;SDS011;39886;47.984;-1.586;2024-01-10T12:36:03;7.38;;;4.72;;
53977;SDS011;39886;47.984;-1.586;2024-01-10T12:38:30;6.00;;;4.70;;
53977;SDS011;39886;47.984;-1.586;2024-01-10T12:40:57;6.75;;;4.30;;
53977;SDS011;39886;47.984;-1.586;2024-01-10T12:43:23;5.90;;;4.80;;
53977;SDS011;39886;47.984;-1.586;2024-01-10T12:46:02;6.15;;;4.55;;
53977;SDS011;39886;47.984;-1.586;2024-01-10T12:48:28;6.22;;;4.55;;
53977;SDS011;39886;47.984;-1.586;2024-01-10T12:50:54;6.22;;;4.70;;
53977;SDS011;39886;47.984;-1.586;2024-01-10T12:53:20;6.50;;;4.47;;
53977;SDS011;39886;47.984;-1.586;2024-01-10T12:55:46;5.00;;;4.22;;
53977;SDS011;39886;47.984;-1.586;2024-01-10T12:58:12;6.40;;;4.35;;
53977;SDS011;39886;47.984;-1.586;2024-01-10T13:00:38;7.10;;;4.57;;
53977;SDS011;39886;47.984;-1.586;2024-01-10T13:03:05;6.75;;;5.00;;
53977;SDS011;39886;47.984;-1.586;2024-01-10T13:05:31;6.10;;;4.30;;
53977;SDS011;39886;47.984;-1.586;2024-01-10T13:07:58;5.70;;;4.68;;
53977;SDS011;39886;47.984;-1.586;2024-01-10T13:10:24;5.32;;;3.97;;
53977;SDS011;39886;47.984;-1.586;2024-01-10T13:12:50;5.18;;;4.20;;
53977;SDS011;39886;47.984;-1.586;2024-01-10T13:15:16;4.82;;;4.15;;
53977;SDS011;39886;47.984;-1.586;2024-01-10T13:17:43;6.95;;;4.88;;
53977;SDS011;39886;47.984;-1.586;2024-01-10T13:20:09;7.20;;;4.28;;
53977;SDS011;39886;47.984;-1.586;2024-01-10T13:22:35;6.40;;;5.00;;
53977;SDS011;39886;47.984;-1.586;2024-01-10T13:25:01;7.15;;;4.30;;
53977;SDS011;39886;47.984;-1.586;2024-01-10T13:27:28;6.03;;;4.20;;
53977;SDS011;39886;47.984;-1.586;2024-01-10T13:29:54;6.43;;;4.03;;
53977;SDS011;39886;47.984;-1.586;2024-01-10T13:32:20;5.85;;;4.45;;
53977;SDS011;39886;47.984;-1.586;2024-01-10T13:34:46;5.82;;;4.43;;
53977;SDS011;39886;47.984;-1.586;2024-01-10T13:37:11;6.13;;;4.53;;
53977;SDS011;39886;47.984;-1.586;2024-01-10T13:39:38;5.05;;;4.22;;
53977;SDS011;39886;47.984;-1.586;2024-01-10T13:42:05;6.38;;;4.13;;
53977;SDS011;39886;47.984;-1.586;2024-01-10T13:44:31;7.30;;;4.60;;
53977;SDS011;39886;47.984;-1.586;2024-01-10T13:46:57;5.95;;;4.40;;
53977;SDS011;39886;47.984;-1.586;2024-01-10T13:49:23;6.93;;;4.63;;
53977;SDS011;39886;47.984;-1.586;2024-01-10T13:51:48;6.80;;;4.75;;
53977;SDS011;39886;47.984;-1.586;2024-01-10T13:54:14;8.73;;;4.40;;
53977;SDS011;39886;47.984;-1.586;2024-01-10T13:56:40;5.57;;;4.78;;
53977;SDS011;39886;47.984;-1.586;2024-01-10T13:59:07;6.47;;;4.70;;
53977;SDS011;39886;47.984;-1.586;2024-01-10T14:01:33;7.20;;;4.28;;
53977;SDS011;39886;47.984;-1.586;2024-01-10T14:03:59;5.43;;;4.05;;
53977;SDS011;39886;47.984;-1.586;2024-01-10T14:06:25;8.98;;;4.35;;
53977;SDS011;39886;47.984;-1.586;2024-01-10T14:08:51;10.30;;;5.15;;
53977;SDS011;39886;47.984;-1.586;2024-01-10T14:11:18;8.90;;;7.00;;
53977;SDS011;39886;47.984;-1.586;2024-01-10T14:13:45;12.88;;;9.88;;
53977;SDS011;39886;47.984;-1.586;2024-01-10T14:16:11;14.02;;;10.50;;
53977;SDS011;39886;47.984;-1.586;2024-01-10T14:18:37;18.85;;;11.68;;
53977;SDS011;39886;47.984;-1.586;2024-01-10T14:21:03;14.75;;;11.05;;
53977;SDS011;39886;47.984;-1.586;2024-01-10T14:23:30;17.73;;;12.38;;
53977;SDS011;39886;47.984;-1.586;2024-01-10T14:25:56;17.58;;;12.80;;
53977;SDS011;39886;47.984;-1.586;2024-01-10T14:28:22;16.40;;;12.02;;
53977;SDS011;39886;47.984;-1.586;2024-01-10T14:30:47;18.45;;;13.73;;
53977;SDS011;39886;47.984;-1.586;2024-01-10T14:33:13;19.73;;;14.95;;
53977;SDS011;39886;47.984;-1.586;2024-01-10T14:35:39;18.20;;;13.65;;
53977;SDS011;39886;47.984;-1.586;2024-01-10T14:38:05;16.98;;;13.48;;
53977;SDS011;39886;47.984;-1.586;2024-01-10T14:40:32;18.65;;;14.10;;
53977;SDS011;39886;47.984;-1.586;2024-01-10T14:42:58;16.13;;;12.60;;
53977;SDS011;39886;47.984;-1.586;2024-01-10T14:45:24;19.25;;;13.38;;